メインページ
METAR-TAF:

METAR-TAF

空港 :

ベルリン・テーゲル空港

ベルリン, ドイツ

緯度: 52-34N, 経度: 013-19E, 海抜: 37m

現時点の気象観測

当レポートは18分前の06:20(UTC)に作成
南/南東の風 9kt
気温 4°C
湿度 81%
気圧 998 hPa
視程10km以上
1,500メートル以下は雲なし、積乱雲なし

METAR: EDDT 150620Z 16009KT CAVOK 04/01 Q0998 NOSIG

時間: 07:38 (06:38 UTC)

予報

当レポートは1時間38分前の05:00(UTC)に作成
予報は15日の 06時(UTC)から 16日の 06時(UTC)まで有効
の風 11kt
視程10km以上
高度3000ftの雲は散在している
確率 30% :
15日の 08時(UTC)から 15日の 12時(UTC)まで一時的に
高度1300ftの千切れ雲あり
15日の 09時(UTC)から 15日の 11時(UTC)まで徐々に
南西の風 15kt、最大25ktの突風を伴う
15日の 17時(UTC)から 15日の 19時(UTC)まで徐々に
南/南西の風 9kt

TAF: EDDT 150500Z 1506/1606 18011KT 9999 SCT030 PROB30 TEMPO 1508/1512 RA BKN013 BECMG 1509/1511 23015G25KT BECMG 1517/1519 21009KT

4,000以上の空港の気象観測と天気予報(METAR報とTAF報)

利用可能な観測所は地図上に黄色い丸と赤い丸で示す。

丸の上にカーソルを重ねると観測所名を参照できる。

次にクリックすると気象観測と天気予報を参照できる。

マップの切り替え:黒色「×」印の緑ボタンをクリックして拡大、「-」印の緑ボタンをクリックして縮小、緑色の三角印をクリックして隣りの地図に切り替え


METAR-TAF: